Date,TemperatureHighF,TemperatureAvgF,TemperatureLowF,DewpointHighF,DewpointAvgF,DewpointLowF,HumidityHigh,HumidityAvg,HumidityLow,PressureMaxIn,PressureMinIn,WindSpeedMaxMPH,WindSpeedAvgMPH,GustSpeedMaxMPH,PrecipitationSumIn
2013-1-1,56,55,54,54,51,48,99,87,77,30.16,29.99,15,12,20,0.00
2013-1-2,54,48,42,54,46,36,100,95,79,30.19,29.94,21,13,26,0.00
2013-1-3,45,43,41,41,37,35,92,80,71,30.26,30.15,18,14,22,0.00
2013-1-4,50,44,39,36,32,28,85,63,47,30.33,30.22,21,12,23,0.00
2013-1-5,48,44,38,37,30,24,73,57,46,30.40,30.27,20,10,22,0.00
2013-1-6,51,48,45,47,42,35,98,80,64,30.30,30.11,8,3,10,0.00
2013-1-7,50,47,43,47,38,33,98,72,54,30.45,30.14,25,16,30,0.00
2013-1-8,59,52,44,56,48,38,96,87,80,30.47,30.38,23,12,25,0.00
2013-1-9,62,57,53,58,54,50,96,89,65,30.45,30.37,11,7,13,0.00
2013-1-10,57,55,50,56,48,36,99,79,56,30.53,30.41,24,14,28,0.00
2013-1-26,38,35,32,37,32,29,98,90,81,30.38,30.13,17,13,21,0.00
2013-1-27,40,37,33,33,28,23,95,69,49,30.58,30.39,22,15,25,0.00
2013-1-28,60,46,39,60,44,32,100,91,76,30.53,30.29,14,8,20,0.00
2013-1-29,63,58,53,63,58,53,100,97,89,30.28,30.16,14,11,17,0.00
2013-1-30,66,63,58,64,62,58,100,97,92,30.18,29.73,30,16,32,0.00
2013-1-31,66,53,50,64,34,27,92,50,35,30.07,29.68,36,25,45,0.00
2013-2-1,54,46,36,33,9,-100,51,37,29,30.40,30.04,32,22,41,0.00
2013-2-2,50,38,31,41,21,8,72,51,36,30.42,30.04,15,8,18,0.00
2013-2-3,53,48,45,44,34,29,69,57,44,30.03,29.86,20,14,23,0.00
2013-2-4,49,43,38,34,24,19,56,47,37,30.15,29.98,17,9,20,0.00
2013-2-5,57,53,47,50,42,38,82,67,52,30.05,29.91,17,10,22,0.00
2013-2-6,57,54,51,50,44,37,84,68,47,30.25,29.98,17,10,18,0.00
2013-2-7,60,55,50,58,51,47,99,86,71,30.26,29.91,43,22,47,0.00
2013-2-8,63,55,49,63,50,43,100,85,66,29.92,29.47,41,22,47,0.00
2013-2-9,51,46,42,42,27,23,72,48,33,30.35,29.96,25,18,31,0.00
2013-2-10,60,48,41,51,36,28,87,65,51,30.47,30.31,16,10,17,0.00
2013-2-11,63,61,59,61,58,50,100,89,70,30.32,29.95,22,16,25,0.00
2013-2-12,59,57,55,59,51,42,100,82,54,30.07,29.94,22,10,28,0.00
2013-2-13,59,54,51,58,52,45,100,93,78,30.01,29.65,23,12,28,0.00
2013-2-14,54,48,44,46,38,35,77,70,66,30.08,29.80,21,11,25,0.00
2013-2-15,53,49,45,41,38,34,83,66,49,30.09,29.97,10,7,13,0.00
2013-2-16,52,46,36,47,40,34,91,79,61,29.96,29.66,26,14,33,0.00
2013-2-17,38,36,33,32,20,12,87,54,35,30.26,29.81,26,22,34,0.00
2013-2-18,49,38,31,31,16,10,50,40,33,30.45,30.28,17,10,21,0.00
2013-2-19,60,56,50,56,49,36,98,78,58,30.32,29.91,23,13,32,0.00
2013-2-20,53,49,44,46,33,18,83,56,28,30.11,29.94,21,14,23,0.00
2013-2-21,47,44,38,34,30,25,67,57,48,30.23,30.09,21,10,24,0.00
2013-2-22,58,46,40,54,37,25,98,73,51,30.32,30.11,21,16,25,0.00
2013-2-23,62,55,49,62,54,49,100,99,94,30.08,29.82,23,9,29,0.00
2013-2-24,57,52,48,53,50,46,100,93,69,29.99,29.77,15,7,18,0.00
2013-2-25,54,44,40,54,36,30,100,73,61,30.18,29.99,25,18,29,0.00
2013-2-26,63,58,47,63,56,44,100,94,71,30.09,29.61,31,22,34,0.00
2013-2-27,60,54,51,60,46,39,100,76,61,29.81,29.62,25,15,32,0.00
2013-2-28,54,52,49,46,38,29,74,61,46,29.83,29.69,21,16,23,0.00
2013-3-1,50,46,41,36,30,28,61,53,44,29.89,29.81,18,12,23,0.00
2013-3-2,50,46,43,33,30,28,64,52,43,29.90,29.78,17,10,20,0.00
2013-3-3,45,42,36,29,24,22,63,50,41,29.92,29.82,20,12,22,0.00
2013-3-4,48,41,33,25,21,18,57,45,34,30.10,29.92,22,15,26,0.00
2013-3-5,59,54,48,54,37,23,86,54,37,30.12,29.70,18,10,21,0.00
2013-3-6,61,50,43,57,39,27,90,67,46,29.86,29.49,46,30,58,0.00
2013-3-7,52,46,42,34,31,28,68,55,42,30.15,29.88,29,20,33,0.00
2013-3-8,51,46,40,32,28,24,57,49,38,30.18,30.07,25,19,29,0.00
2013-3-9,56,48,41,41,32,28,69,53,37,30.29,30.18,23,16,28,0.00
2013-3-10,52,49,43,47,41,32,88,73,54,30.31,30.25,16,12,17,0.00
2013-3-11,61,56,51,54,50,48,93,82,68,30.26,30.04,17,11,18,0.00
2013-3-12,61,60,55,61,58,54,100,94,78,30.00,29.79,24,16,25,0.00
2013-3-13,57,52,48,57,40,34,100,64,47,30.04,29.86,17,12,23,0.00
2013-3-14,50,45,38,30,24,19,53,43,36,30.19,30.03,28,18,31,0.00
2013-3-15,55,49,44,42,29,18,61,46,31,30.18,29.99,21,13,23,0.00
2013-3-16,60,58,55,51,49,44,80,72,65,29.98,29.75,22,16,31,0.00
2013-3-17,58,53,48,53,50,45,100,88,76,30.14,29.86,31,19,36,0.00
2013-3-18,59,53,49,58,52,47,100,95,86,30.14,29.90,28,14,30,0.00
2013-3-19,62,57,55,59,54,49,100,91,63,29.96,29.76,18,9,22,0.00
2013-3-20,59,52,49,41,22,-100,60,37,28,30.09,29.83,17,11,22,0.00
2013-3-21,51,48,42,37,30,20,59,51,39,29.91,29.68,23,13,26,0.00
2013-3-22,48,40,34,31,19,12,51,43,33,30.08,29.93,23,13,29,0.00
2013-3-23,54,51,49,37,31,27,58,46,37,30.04,29.93,16,8,20,0.00
2013-3-24,60,54,48,60,49,39,99,83,60,29.94,29.40,32,18,38,0.00
2013-3-25,50,48,44,48,39,27,99,73,43,29.78,29.49,29,21,34,0.00
2013-3-26,48,46,42,33,28,26,56,50,44,30.05,29.79,29,20,33,0.00
2013-3-27,53,47,41,33,29,24,63,51,33,30.18,30.06,20,15,24,0.00
2013-3-28,53,47,41,32,28,25,58,46,35,30.23,30.14,18,12,21,0.00
2013-3-29,52,49,43,38,32,25,65,52,36,30.31,30.21,14,9,15,0.00
2013-3-30,59,54,52,48,42,-100,79,66,43,30.25,30.14,13,7,15,0.00
2013-3-31,63,59,56,55,52,44,89,77,61,30.15,29.88,21,12,28,0.00
2013-4-1,60,58,56,58,57,56,100,97,90,29.90,29.83,16,10,21,0.00
2013-4-2,57,52,49,57,27,-100,100,56,48,30.14,29.89,20,13,23,0.00
2013-4-3,56,51,49,47,38,30,85,60,46,30.29,30.11,25,14,28,0.00
2013-4-4,61,54,50,61,44,35,100,72,54,30.31,29.79,32,25,36,0.00
2013-4-5,61,53,47,61,50,45,100,90,71,30.00,29.73,36,13,40,0.00
2013-4-6,54,51,49,51,44,33,94,76,51,30.29,30.01,29,17,33,0.00
2013-4-7,60,55,48,56,51,44,98,88,77,30.28,30.18,18,9,21,0.00
2013-4-8,69,62,57,62,58,55,96,84,65,30.22,30.14,15,10,18,0.00
2013-4-9,70,65,59,63,61,59,100,88,74,30.24,30.14,17,11,21,0.00
2013-4-10,69,64,61,64,62,60,100,93,75,30.16,30.04,15,11,18,0.00
2013-4-11,73,66,62,67,65,62,100,95,81,30.05,29.92,17,11,20,0.00
2013-4-12,69,66,64,69,66,64,100,100,98,29.91,29.72,23,16,26,0.00
2013-4-13,65,60,57,65,53,45,100,79,63,30.02,29.75,26,15,30,0.00
2013-4-14,68,63,59,59,54,49,88,73,56,30.12,30.03,14,5,15,0.00
2013-4-15,66,64,61,63,60,57,99,87,77,30.19,30.01,31,14,37,0.00
2013-4-16,64,63,61,64,62,61,100,98,93,30.28,30.18,14,10,15,0.00
2013-4-17,68,65,62,66,63,60,99,92,79,30.25,30.17,9,6,9,0.00
2013-4-18,68,67,65,66,64,62,96,90,83,30.23,30.12,13,8,15,0.00
2013-4-19,72,69,67,71,69,66,100,98,91,30.10,29.91,24,18,32,0.00
2013-4-20,70,60,55,70,56,47,100,86,69,30.25,29.87,26,15,30,0.00
2013-4-21,58,56,53,48,44,41,76,64,55,30.44,30.25,37,28,41,0.00
2013-4-22,56,54,52,56,53,47,100,93,81,30.39,30.12,30,24,36,0.00
2013-4-23,59,56,54,56,53,50,100,90,73,30.18,30.06,29,19,33,0.00
2013-4-24,67,60,55,64,57,51,96,89,76,30.21,30.08,14,8,18,0.00
2013-4-25,66,60,55,65,57,48,100,90,75,30.27,30.07,28,16,32,0.00
2013-4-26,59,57,55,52,49,45,84,72,59,30.40,30.26,18,16,22,0.00
2013-4-27,61,60,58,56,52,47,92,77,61,30.39,30.30,20,15,21,0.00
2013-4-28,64,61,59,59,53,47,94,77,63,30.30,30.15,15,11,16,0.00
2013-4-29,65,63,62,64,61,56,100,92,74,30.14,30.00,18,9,20,0.00
2013-4-30,63,62,61,63,62,61,100,100,99,30.11,29.99,16,9,18,0.00
2013-5-1,64,62,60,64,62,59,100,98,85,30.25,30.09,22,13,24,0.00
2013-5-2,64,62,60,63,61,58,100,97,82,30.27,30.19,23,20,26,0.00
2013-5-3,62,60,58,62,56,48,100,88,68,30.20,30.14,32,25,37,0.00
2013-5-4,60,58,57,59,57,54,100,96,86,30.13,30.02,30,27,37,0.00
2013-5-5,66,61,58,62,60,58,100,96,83,30.04,29.97,26,19,30,0.00
2013-5-6,66,65,63,65,62,59,100,91,80,29.98,29.88,28,15,30,0.00
2013-5-7,67,62,58,62,59,53,100,90,70,29.98,29.88,11,6,14,0.00
2013-5-8,69,64,61,63,60,56,99,85,64,30.04,29.95,11,7,16,0.00
2013-5-9,70,67,65,65,64,62,99,89,79,30.08,29.98,16,11,20,0.00
2013-5-10,74,68,65,71,65,-100,100,91,73,30.10,30.04,14,9,16,0.00
2013-5-11,76,71,69,72,68,-100,100,94,78,30.05,29.87,17,13,24,0.00
2013-5-12,74,70,68,69,67,55,100,90,59,29.96,29.79,16,11,20,0.00
2013-5-13,68,64,60,61,48,41,79,57,40,30.12,29.97,24,17,28,0.00
2013-5-14,65,61,57,47,41,35,62,48,31,30.25,30.14,15,11,18,0.00
2013-5-15,73,69,65,64,58,48,83,69,55,30.16,29.97,18,13,28,0.00
2013-5-16,72,66,68,67,48,-100,96,87,80,30.00,29.93,17,15,23,0.00
2013-5-17,75,70,68,70,64,-100,100,91,71,30.13,29.98,15,10,18,0.00
2013-5-18,74,71,68,72,71,68,100,98,93,30.19,30.13,9,7,9,0.00
2013-5-19,74,71,70,72,70,66,100,94,82,30.19,30.12,18,9,21,0.00
2013-5-20,76,72,69,71,70,65,100,94,82,30.17,30.09,20,12,21,0.00
2013-5-21,76,73,70,74,72,70,100,97,90,30.10,30.03,16,11,20,0.00
2013-5-22,78,75,72,74,73,72,100,94,86,30.08,30.00,15,10,22,0.00
2013-5-23,74,72,69,74,72,69,100,100,97,30.02,29.86,20,11,22,0.00
2013-5-24,78,72,66,73,66,51,100,83,56,30.11,29.79,23,13,26,0.00
2013-5-25,69,61,54,52,45,38,75,56,44,30.24,30.12,20,13,23,0.00
2013-5-26,70,67,65,61,55,50,79,64,49,30.24,30.15,13,6,14,0.00
2013-5-27,71,69,66,63,57,53,77,65,56,30.29,30.21,14,7,15,0.00
2013-5-28,74,72,70,72,67,64,100,85,78,30.29,30.22,13,8,14,0.00
2013-5-29,78,74,71,74,71,67,100,90,74,30.29,30.21,11,7,15,0.00
2013-5-30,76,74,72,74,72,70,100,94,86,30.30,30.23,11,6,13,0.00
2013-5-31,76,74,73,76,74,73,100,99,95,30.26,30.16,10,7,10,0.00
2013-6-1,79,75,73,76,74,73,100,96,86,30.19,30.11,13,8,16,0.00
2013-6-2,79,76,74,76,75,74,100,95,86,30.11,29.99,15,10,17,0.00
2013-6-3,77,75,70,77,75,70,100,100,99,30.01,29.88,17,13,20,0.00
2013-6-4,75,74,72,75,73,71,100,99,92,30.09,29.91,22,13,24,0.00
2013-6-5,74,73,72,73,68,66,98,85,76,30.12,30.05,21,17,23,0.00
2013-6-6,76,75,74,76,74,71,100,96,89,30.06,29.88,18,13,21,0.00
2013-6-7,78,76,74,78,76,74,100,100,100,29.90,29.63,34,24,41,0.00
2013-6-8,80,77,75,80,77,75,100,100,100,30.11,29.88,20,15,24,0.00
2013-6-9,80,76,74,80,76,74,100,100,99,30.18,30.12,21,12,24,0.00
2013-6-10,81,77,74,81,77,74,100,100,100,30.16,30.01,22,15,25,0.00
2013-6-11,79,77,74,79,77,74,100,100,99,30.03,29.89,20,15,25,0.00
2013-6-12,82,78,75,80,77,75,100,99,89,29.97,29.89,14,9,16,0.00
2013-6-13,82,79,74,82,79,74,100,100,100,29.90,29.66,23,13,29,0.00
2013-6-14,78,73,71,74,68,60,100,83,63,30.01,29.69,22,15,23,0.00
2013-6-15,79,74,71,66,63,59,73,67,62,30.12,30.01,17,10,18,0.00
2013-6-16,80,77,75,71,70,67,84,78,74,30.16,30.08,16,12,21,0.00
2013-6-17,80,77,76,77,73,70,99,87,80,30.09,30.01,18,14,22,0.00
2013-6-18,80,77,73,80,77,73,100,100,99,30.02,29.83,25,13,36,0.00
2013-6-19,79,73,70,79,73,70,100,100,100,30.09,29.85,32,18,36,0.00
2013-6-20,73,71,70,73,71,70,100,100,100,30.18,30.07,24,20,28,0.00
2013-6-22,76,75,73,76,75,73,100,100,100,30.21,30.16,15,11,16,0.00
2013-6-23,78,77,75,78,77,75,100,100,100,30.24,30.17,20,10,22,0.00
2013-6-24,82,78,76,82,78,76,100,100,100,30.24,30.13,15,9,21,0.00
2013-6-25,81,78,77,81,78,77,100,100,100,30.16,30.03,17,12,22,0.00
2013-6-26,82,79,78,82,79,78,100,100,100,30.07,29.97,20,13,23,0.00
2013-6-27,82,79,77,79,-62,-100,100,22,100,29.96,29.80,25,18,29,0.00
2013-6-28,82,80,75,-100,-100,-100,0,0,100,29.83,29.68,23,18,30,0.00
2013-6-29,81,80,78,-100,-100,-100,0,0,100,29.81,29.67,27,20,33,0.00
2013-6-30,79,78,75,-100,-100,-100,0,0,100,29.92,29.79,25,18,29,0.00
2013-7-1,80,78,75,-100,-100,-100,0,0,100,30.08,29.91,24,19,28,0.00
2013-7-2,80,78,71,-100,-100,-100,0,0,100,30.25,30.09,22,14,24,0.00
2013-7-3,80,79,77,-100,-100,-100,0,0,100,30.29,30.20,17,12,20,0.00
2013-7-4,81,79,78,-100,-100,-100,0,0,100,30.31,30.25,14,10,15,0.00
2013-7-5,81,80,76,-100,-100,-100,0,0,100,30.31,30.22,15,11,16,0.00
2013-7-6,81,79,78,-100,-100,-100,0,0,100,30.28,30.18,13,8,14,0.00
2013-7-7,82,80,78,-100,-100,-100,0,0,100,30.22,30.12,16,10,18,0.00
2013-7-8,83,79,79,-100,-100,-100,0,0,100,30.21,30.14,15,11,18,0.00
2013-7-9,83,81,80,-100,-100,-100,0,0,100,30.21,30.13,15,12,18,0.00
2013-7-10,84,81,79,-100,-100,-100,0,0,100,30.16,30.03,17,11,22,0.00
2013-7-11,82,79,75,-100,-100,-100,0,0,100,30.03,29.93,23,16,29,0.00
2013-7-12,80,77,72,-100,-100,-100,0,0,100,30.00,29.90,16,9,20,0.00
2013-7-13,81,79,76,-100,-100,-100,0,0,100,30.19,29.99,22,16,24,0.00
2013-7-14,81,80,78,-100,-100,-100,0,0,100,30.28,30.21,14,11,15,0.00
2013-7-15,81,80,79,-100,-100,-100,0,0,100,30.29,30.24,14,9,16,0.00
2013-7-16,85,81,79,-100,-100,-100,0,0,100,30.27,30.18,12,6,15,0.00
2013-7-17,83,81,79,-100,-100,-100,0,0,100,30.19,30.11,14,8,17,0.00
2013-7-18,84,82,79,-100,-100,-100,0,0,100,30.15,30.08,13,7,15,0.00
2013-7-19,84,82,80,-100,-100,-100,0,0,100,30.15,30.05,18,12,22,0.00
2013-7-20,84,81,80,-100,-100,-100,0,0,100,30.08,30.00,21,17,28,0.00
2013-7-21,82,80,79,-100,-100,-100,0,0,100,30.04,29.96,20,14,23,0.00
2013-7-22,82,80,79,-100,-100,-100,0,0,100,29.99,29.87,17,12,23,0.00
2013-7-23,81,80,78,-100,-100,-100,0,0,100,29.89,29.76,18,15,24,0.00
2013-7-24,84,81,78,-100,-100,-100,0,0,100,29.83,29.75,16,12,21,0.00
2013-7-25,81,78,75,-100,-100,-100,0,0,100,29.98,29.78,14,8,17,0.00
2013-7-26,78,76,74,-100,-100,-100,0,0,100,30.09,29.99,16,12,17,0.00
2013-7-27,80,79,78,-100,-100,-100,0,0,100,30.05,29.98,17,10,18,0.00
2013-7-28,83,80,76,-100,-100,-100,0,0,100,30.03,29.89,22,14,24,0.00
2013-7-29,82,79,73,-100,-100,-100,0,0,100,30.14,30.02,18,10,21,0.00
2013-7-30,80,78,76,-100,-100,-100,0,0,100,30.19,30.13,12,5,14,0.00
2013-7-31,80,79,78,-100,-100,-100,0,0,100,30.14,30.05,14,11,15,0.00
2013-8-1,80,78,74,-100,-100,-100,0,0,100,30.04,29.91,17,11,23,0.00
2013-8-2,83,80,79,-100,-100,-100,0,0,100,30.05,29.91,16,13,22,0.00
2013-8-3,84,81,80,-100,-100,-100,0,0,100,30.05,29.94,15,11,18,0.00
2013-8-4,82,79,74,-100,-100,-100,0,0,100,30.01,29.87,16,10,18,0.00
2013-8-5,79,77,74,-100,-100,-100,0,0,100,30.08,30.00,15,10,17,0.00
2013-8-6,80,79,77,-100,-100,-100,0,0,100,30.08,30.01,14,8,15,0.00
2013-8-7,80,80,79,-100,-100,-100,0,0,100,30.11,30.06,14,10,16,0.00
2013-8-8,84,81,79,-100,-100,-100,0,0,100,30.08,30.04,15,10,16,0.00
2013-8-9,84,81,78,-100,-100,-100,0,0,100,30.11,30.04,15,12,21,0.00
2013-8-10,84,82,80,-100,-100,-100,0,0,100,30.12,30.05,16,13,21,0.00
2013-8-11,84,81,78,-100,-100,-100,0,0,100,30.11,30.04,15,9,18,0.00
2013-8-12,84,82,79,-100,-100,-100,0,0,100,30.07,29.96,13,10,16,0.00
2013-8-13,85,81,81,-100,-100,-100,0,0,100,29.96,29.82,17,13,24,0.00
2013-8-14,82,77,73,-100,-100,-100,0,0,100,30.04,29.80,21,15,26,0.00
2013-8-15,73,65,67,-100,-100,-100,0,0,100,30.09,30.03,22,18,26,0.00
2013-8-16,74,70,71,-100,-100,-100,0,0,100,30.11,30.02,15,12,18,0.00
2013-8-17,79,74,71,-100,-100,-100,0,0,100,30.13,30.05,20,12,21,0.00
2013-8-18,83,78,75,-100,-100,-100,0,0,100,30.19,30.11,15,8,17,0.00
2013-8-19,79,73,75,-100,-100,-100,0,0,100,30.17,30.09,13,8,14,0.00
2013-8-20,79,77,76,-100,-100,-100,0,0,100,30.17,30.09,14,9,16,0.00
2013-8-21,82,80,78,-100,-100,-100,0,0,100,30.23,30.13,10,7,10,0.00
2013-8-22,82,80,77,-100,-100,-100,0,0,100,30.14,30.02,11,7,14,0.00
2013-8-23,83,80,71,-100,-100,-100,0,0,100,30.01,29.92,16,11,20,0.00
2013-8-24,79,76,73,-100,-100,-100,0,0,100,30.22,30.00,29,20,33,0.00
2013-8-25,76,75,72,-100,-100,-100,0,0,100,30.31,30.22,28,23,31,0.00
2013-8-26,78,74,69,-100,-100,-100,0,0,100,30.26,30.13,13,10,15,0.00
2013-8-27,80,77,74,-100,-100,-100,0,0,100,30.13,30.02,14,9,17,0.00
2013-8-28,81,80,79,-100,-100,-100,0,0,100,29.98,29.91,14,12,20,0.00
2013-8-29,82,79,77,-100,-100,-100,0,0,100,29.97,29.84,25,16,29,0.00
2013-8-30,78,76,73,-100,-100,-100,0,0,100,30.03,29.95,21,13,23,0.00
2013-8-31,83,79,78,-100,-100,-100,0,0,100,30.00,29.91,10,5,10,0.00
2013-9-1,83,80,78,-100,-100,-100,0,0,100,29.96,29.86,18,10,22,0.00
2013-9-2,83,80,73,-100,-100,-100,0,0,100,29.92,29.83,24,13,30,0.00
2013-9-3,83,80,73,-100,-100,-100,0,0,100,29.92,29.83,22,11,28,0.00
2013-9-4,80,78,75,-100,-100,-100,0,0,100,30.07,29.93,11,8,13,0.00
2013-9-5,82,80,78,-100,-100,-100,0,0,100,30.09,30.01,9,4,11,0.00
2013-9-6,81,78,76,-100,-100,-100,0,0,100,30.09,30.02,26,16,31,0.00
2013-9-7,77,75,74,-100,-100,-100,0,0,100,30.09,30.00,23,15,25,0.00
2013-9-8,80,77,74,-100,-100,-100,0,0,100,30.00,29.91,11,7,16,0.00
2013-9-9,80,78,75,-100,-100,-100,0,0,100,30.14,29.99,13,8,15,0.00
2013-9-10,81,80,76,-100,-100,-100,0,0,100,30.23,30.14,14,10,15,0.00
2013-9-11,81,80,79,-100,-100,-100,0,0,100,30.21,30.10,11,8,14,0.00
2013-9-12,81,79,78,-100,-100,-100,0,0,100,30.10,29.85,13,6,16,0.00
2013-9-13,83,80,78,-100,-100,-100,0,0,100,29.83,29.73,25,11,28,0.00
2013-9-14,78,74,70,-100,-100,-100,0,0,100,30.10,29.80,23,19,26,0.00
2013-9-15,76,74,71,-100,-100,-100,0,0,100,30.19,30.10,18,14,23,0.00
2013-9-16,82,78,72,-100,-100,-100,0,0,100,30.15,30.03,18,6,24,0.00
2013-9-17,74,71,67,-100,-100,-100,0,0,100,30.24,30.11,29,21,33,0.00
2013-9-18,71,67,66,-100,-100,-100,0,0,100,30.23,30.16,18,15,23,0.00
2013-9-19,73,70,66,-100,-100,-100,0,0,100,30.16,30.09,15,10,17,0.00
2013-9-20,75,73,69,-100,-100,-100,0,0,100,30.08,29.98,11,8,13,0.00
2013-9-21,78,75,72,-100,-100,-100,0,0,100,29.98,29.77,11,7,13,0.00
2013-9-22,79,74,70,-100,-100,-100,0,0,100,29.81,29.66,26,15,32,0.00
2013-9-23,71,69,65,-100,-100,-100,0,0,100,30.07,29.82,21,15,28,0.00
2013-9-24,69,66,63,-100,-100,-100,0,0,100,30.09,29.97,16,10,18,0.00
2013-9-25,71,69,66,-100,-100,-100,0,0,100,29.97,29.85,17,12,20,0.00
2013-9-26,74,70,66,-100,-100,-100,0,0,100,29.96,29.83,25,15,29,0.00
2013-9-27,71,70,68,-100,-100,-100,0,0,100,30.09,29.94,26,21,32,0.00
2013-9-28,72,68,66,-100,-100,-100,0,0,100,30.15,30.07,26,20,31,0.00
2013-9-29,73,69,64,-100,-100,-100,0,0,100,30.09,29.98,18,14,21,0.00
2013-9-30,73,68,62,-100,-100,-100,0,0,100,30.06,29.98,15,9,16,0.00
2013-10-2,77,73,68,-100,-100,-100,0,0,100,30.13,30.06,11,6,13,0.00
2013-10-3,78,74,70,-100,-100,-100,0,0,100,30.16,30.10,7,5,8,0.00
2013-10-4,77,75,73,-100,-100,-100,0,0,100,30.16,30.08,8,5,9,0.00
2013-10-5,78,74,72,-100,-100,-100,0,0,100,30.13,30.07,7,4,7,0.00
2013-10-6,77,76,75,-100,-100,-100,0,0,100,30.09,30.00,13,8,14,0.00
2013-10-7,79,77,76,-100,-100,-100,0,0,100,29.99,29.88,18,14,21,0.00
2013-10-8,77,70,66,-100,-100,-100,0,0,100,30.03,29.90,38,24,43,0.00
2013-10-9,69,67,65,-100,-100,-100,0,0,100,30.01,29.84,32,27,41,0.00
2013-10-10,66,64,62,-100,-100,-100,0,0,100,29.89,29.80,24,19,30,0.00
2013-10-11,66,64,62,-100,-100,-100,0,0,100,29.94,29.85,15,12,18,0.00
2013-10-12,69,66,64,-100,-100,-100,0,0,100,30.03,29.92,9,6,11,0.00
2013-10-13,76,70,67,-100,-100,-100,0,0,100,30.08,30.01,22,13,24,0.00
2013-10-14,72,70,68,-100,-100,-100,0,0,100,30.11,30.06,26,20,30,0.00
2013-10-15,72,68,66,-100,-100,-100,0,0,100,30.08,29.97,21,17,25,0.00
2013-10-16,71,69,68,-100,-100,-100,0,0,100,29.98,29.94,18,12,21,0.00
2013-10-17,72,70,65,-100,-100,-100,0,0,100,29.98,29.89,9,7,13,0.00
2013-10-18,73,71,69,-100,-100,-100,0,0,100,30.01,29.89,15,10,16,0.00
2013-10-19,75,72,70,-100,-100,-100,0,0,100,29.96,29.85,14,7,16,0.00
2013-10-20,73,66,63,-100,-100,-100,0,0,100,30.09,29.87,20,15,25,0.00
2013-10-21,68,65,62,-100,-100,-100,0,0,100,30.13,29.99,21,13,22,0.00
2013-10-22,67,65,63,-100,-100,-100,0,0,100,29.99,29.86,15,6,18,0.00
2013-10-23,70,64,58,-100,-100,-100,0,0,100,29.90,29.66,23,13,26,0.00
2013-10-24,59,55,49,-100,-100,-100,0,0,100,30.16,29.93,24,14,28,0.00
2013-10-25,57,53,50,-100,-100,-100,0,0,100,30.33,30.16,20,14,25,0.00
2013-10-26,61,55,50,-100,-100,-100,0,0,100,30.33,30.11,15,10,17,0.00
2013-10-27,63,61,58,-100,-100,-100,0,0,100,30.16,30.06,17,9,21,0.00
2013-10-28,68,63,60,-100,-100,-100,0,0,100,30.26,30.15,8,4,10,0.00
2013-10-29,67,64,60,-100,-100,-100,0,0,100,30.32,30.23,13,9,14,0.00
2013-10-30,69,66,60,-100,-100,-100,0,0,100,30.31,30.21,11,5,13,0.00
2013-10-31,72,69,66,-100,-100,-100,0,0,100,30.23,30.04,15,8,22,0.00
2013-11-1,74,72,68,-100,-100,-100,0,0,100,30.02,29.78,18,14,23,0.00
2013-11-2,74,66,64,-100,-100,-100,0,0,100,29.87,29.70,25,12,31,0.00
2013-11-3,66,59,54,-100,-100,-100,0,0,100,30.31,29.86,22,17,26,0.00
2013-11-4,57,55,53,-100,-100,-100,0,0,100,30.46,30.31,30,20,36,0.00
2013-11-5,70,62,54,-100,-100,-100,0,0,100,30.42,30.37,26,19,29,0.00
2013-11-6,65,63,60,-100,-100,-100,0,0,100,30.36,30.12,21,14,25,0.00
2013-11-7,71,68,62,-100,-100,-100,0,0,100,30.11,29.90,23,11,28,0.00
2013-11-8,59,53,50,-100,-100,-100,0,0,100,30.30,30.00,24,15,28,0.00
2013-11-9,60,54,50,-100,-100,-100,0,0,100,30.35,30.21,17,9,18,0.00
2013-11-10,64,62,60,-100,-100,-100,0,0,100,30.21,30.08,17,13,21,0.00
2013-11-11,62,54,50,-100,-100,-100,0,0,100,30.30,30.14,22,14,28,0.00
2013-11-12,64,54,39,-100,-100,-100,0,0,100,30.28,30.01,32,14,43,0.00
2013-11-13,43,40,36,-100,-100,-100,0,0,100,30.47,30.29,31,21,39,0.00
2013-11-14,56,49,41,-100,-100,-100,0,0,100,30.49,30.37,9,7,11,0.00
2013-11-15,66,59,51,-100,-100,-100,0,0,100,30.38,30.23,13,8,14,0.00
2013-11-16,65,62,59,-100,-100,-100,0,0,100,30.25,30.18,14,8,15,0.00
2013-11-17,69,64,59,-100,-100,-100,0,0,100,30.18,30.01,18,8,21,0.00
2013-11-18,70,68,63,-100,-100,-100,0,0,100,29.98,29.79,14,11,18,0.00
2013-11-19,63,54,49,-100,-100,-100,0,0,100,30.24,29.88,25,19,31,0.00
2013-11-20,58,53,48,-100,-100,-100,0,0,100,30.36,30.23,28,20,36,0.00
2013-11-21,61,58,54,-100,-100,-100,0,0,100,30.42,30.34,16,11,20,0.00
2013-11-22,68,62,55,-100,-100,-100,0,0,100,30.37,30.11,13,7,15,0.00
2013-11-23,65,58,54,-100,-100,-100,0,0,100,30.10,30.01,15,11,21,0.00
2013-11-24,54,40,34,-100,-100,-100,0,0,100,30.52,30.06,29,21,36,0.00
2013-11-25,55,38,31,-100,-100,-100,0,0,100,30.56,30.37,17,14,23,0.00
2013-11-26,68,62,53,-100,-100,-100,0,0,100,30.35,29.69,33,19,38,0.00
2013-11-27,71,58,41,-100,-100,-100,0,0,100,30.06,29.44,32,19,39,0.00
2013-11-28,42,38,33,-100,-100,-100,0,0,100,30.48,30.10,24,16,29,0.00
2013-11-29,49,45,42,-100,-100,-100,0,0,100,30.56,30.46,23,15,26,0.00
2013-11-30,54,47,42,-100,-100,-100,0,0,100,30.55,30.33,21,16,25,0.00
2013-12-1,56,50,45,-100,-100,-100,0,0,100,30.30,30.02,13,8,17,0.00
2013-12-2,54,52,49,-100,-100,-100,0,0,100,30.01,29.77,15,11,18,0.00
2013-12-3,60,53,47,-100,-100,-100,0,0,100,30.03,29.85,10,5,13,0.00
2013-12-4,64,60,56,-100,-100,-100,0,0,100,30.11,30.02,13,6,15,0.00
2013-12-5,71,64,56,-100,-100,-100,0,0,100,30.18,30.11,10,6,11,0.00
2013-12-6,72,69,64,-100,-100,-100,0,0,100,30.17,30.09,16,12,20,0.00
2013-12-7,69,50,46,-100,-100,-100,0,0,100,30.39,30.08,25,18,31,0.00
2013-12-8,50,47,45,-100,-100,-100,0,0,100,30.38,30.25,23,17,31,0.00
2013-12-9,69,58,47,-100,-100,-100,0,0,100,30.24,30.09,13,7,18,0.00
2013-12-10,66,57,43,-100,-100,-100,0,0,100,30.30,29.85,28,14,33,0.00
2013-12-11,48,44,39,-100,-100,-100,0,0,100,30.46,30.30,16,9,21,0.00
2013-12-12,48,44,39,-100,-100,-100,0,0,100,30.39,30.24,17,12,22,0.00
2013-12-13,51,45,39,-100,-100,-100,0,0,100,30.43,30.31,10,6,13,0.00
2013-12-14,65,57,47,-100,-100,-100,0,0,100,30.33,29.76,31,16,33,0.00
2013-12-15,64,57,49,-100,-100,-100,0,0,100,30.05,29.68,22,13,25,0.00
2013-12-16,54,49,42,-100,-100,-100,0,0,100,30.19,30.06,17,10,21,0.00
2013-12-17,62,58,54,-100,-100,-100,0,0,100,30.18,29.96,24,13,31,0.00
2013-12-18,60,48,44,-100,-100,-100,0,0,100,30.32,29.97,30,14,37,0.00
2013-12-19,58,53,46,-100,-100,-100,0,0,100,30.36,30.29,10,5,13,0.00
2013-12-20,66,60,55,-100,-100,-100,0,0,100,30.29,30.18,15,6,20,0.00
2013-12-21,66,62,61,-100,-100,-100,0,0,100,30.21,30.14,13,8,15,0.00
2013-12-22,72,67,63,-100,-100,-100,0,0,100,30.18,30.13,13,10,16,0.00
2013-12-23,71,66,64,-100,-100,-100,0,0,100,30.16,30.04,17,14,20,0.00
2013-12-24,61,47,42,-100,-100,-100,0,0,100,30.37,30.03,25,18,31,0.00
2013-12-25,43,40,35,-100,-100,-100,0,0,100,30.50,30.38,23,17,26,0.00
2013-12-26,56,46,42,-100,-100,-100,0,0,100,30.35,30.23,17,12,21,0.00
2013-12-27,51,47,44,-100,-100,-100,0,0,100,30.40,30.30,22,15,25,0.00
2013-12-28,62,49,44,-100,-100,-100,0,0,100,30.40,30.19,14,10,15,0.00
2013-12-29,66,63,56,-100,-100,-100,0,0,100,30.16,29.75,36,19,43,0.00
2013-12-30,57,53,50,-100,-100,-100,0,0,100,30.11,29.93,13,6,16,0.00
2013-12-31,52,50,46,-100,-100,-100,0,0,100,30.36,30.09,16,9,18,0.00
2014-1-1,53,49,45,-100,-100,-100,0,0,100,30.41,30.16,13,8,15,0.00
2014-1-2,61,53,50,-100,-100,-100,0,0,100,30.14,29.52,30,8,36,0.00